Time;durP1;ratioP1;P1;durP2;ratioP2;P2;SDS_P1;SDS_P2;PMS_P1;PMS_P2;Temp;Humidity;BMP_temperature;BMP_pressure;BME280_temperature;BME280_humidity;BME280_pressure;Samples;Min_cycle;Max_cycle;Signal;HPM_P1;HPM_P2
2024/01/09 00:00:16;;;;;;;3.80;2.50;;;1.50;83.50;;;;;;4992614;28;20203;-62
2024/01/09 00:02:42;;;;;;;4.18;2.00;;;1.60;83.70;;;;;;4986691;28;20778;-63
2024/01/09 00:05:08;;;;;;;3.05;1.92;;;1.60;82.60;;;;;;4989073;28;20049;-63
2024/01/09 00:07:33;;;;;;;2.92;1.83;;;1.60;83.80;;;;;;4996530;28;20688;-63
2024/01/09 00:09:59;;;;;;;4.05;2.28;;;1.60;81.70;;;;;;5000658;28;20442;-62
2024/01/09 00:12:25;;;;;;;4.18;2.63;;;1.60;84.50;;;;;;5000306;28;21143;-62
2024/01/09 00:14:51;;;;;;;12.25;5.93;;;1.60;86.00;;;;;;4996271;28;20079;-62
2024/01/09 00:17:16;;;;;;;24.00;16.45;;;1.50;83.00;;;;;;4994877;28;20709;-63
2024/01/09 00:19:42;;;;;;;13.38;9.65;;;1.50;80.90;;;;;;5001994;28;20068;-62
2024/01/09 00:22:08;;;;;;;10.73;7.85;;;1.40;82.30;;;;;;4980434;28;20203;-63
2024/01/09 00:24:34;;;;;;;3.65;2.40;;;1.30;83.00;;;;;;4998810;28;20047;-63
2024/01/09 00:27:00;;;;;;;6.30;2.70;;;1.30;86.20;;;;;;4994567;28;20399;-63
2024/01/09 00:29:26;;;;;;;5.78;2.25;;;1.40;89.30;;;;;;4997981;28;20633;-63
2024/01/09 00:31:52;;;;;;;3.92;2.05;;;1.30;88.70;;;;;;4985512;28;20049;-62
2024/01/09 00:34:17;;;;;;;3.70;2.05;;;1.30;88.20;;;;;;4990432;28;20022;-63
2024/01/09 00:36:43;;;;;;;3.67;2.33;;;1.30;87.30;;;;;;5000098;28;20074;-62
2024/01/09 00:39:10;;;;;;;3.13;2.00;;;1.30;86.40;;;;;;4998058;28;20026;-62
2024/01/09 00:41:36;;;;;;;4.15;2.30;;;1.30;86.30;;;;;;5004622;28;20104;-61
2024/01/09 00:44:02;;;;;;;13.95;8.13;;;1.30;86.90;;;;;;4996841;28;20646;-62
2024/01/09 00:46:30;;;;;;;3.75;2.03;;;1.30;82.40;;;;;;4990589;28;20056;-62
2024/01/09 00:48:56;;;;;;;59.42;27.80;;;1.30;85.40;;;;;;5002236;28;20106;-62
2024/01/09 00:51:21;;;;;;;24.52;12.95;;;1.20;85.30;;;;;;5000709;28;20494;-67
2024/01/09 00:53:47;;;;;;;231.93;114.85;;;1.10;86.70;;;;;;4998657;28;20033;-69
2024/01/09 00:56:13;;;;;;;137.00;74.25;;;1.10;85.50;;;;;;4997516;28;20470;-68
2024/01/09 00:58:38;;;;;;;44.92;27.90;;;1.10;85.00;;;;;;5000251;28;20536;-69
2024/01/09 01:01:04;;;;;;;251.15;137.88;;;1.00;82.90;;;;;;4998467;28;20037;-68
2024/01/09 01:03:30;;;;;;;31.38;21.65;;;1.00;82.60;;;;;;4998700;28;20041;-68
2024/01/09 01:05:55;;;;;;;4.90;4.13;;;1.00;83.80;;;;;;4990463;28;20052;-69
2024/01/09 01:08:21;;;;;;;31.55;19.73;;;1.00;85.10;;;;;;4995423;28;20120;-68
2024/01/09 01:10:48;;;;;;;58.83;34.05;;;1.00;85.40;;;;;;4995546;28;20053;-68
2024/01/09 01:13:13;;;;;;;8.80;6.40;;;1.00;84.80;;;;;;4996384;28;20489;-68
2024/01/09 01:15:39;;;;;;;23.70;18.20;;;1.00;87.70;;;;;;4998170;28;21010;-67
2024/01/09 01:18:05;;;;;;;8.32;7.43;;;1.00;85.10;;;;;;4993960;28;20084;-67
2024/01/09 01:20:30;;;;;;;9.77;8.20;;;1.00;85.70;;;;;;5004063;28;20056;-67
2024/01/09 01:22:56;;;;;;;11.35;9.05;;;1.00;83.10;;;;;;4996900;28;20037;-66
2024/01/09 01:25:22;;;;;;;10.68;9.55;;;1.00;83.30;;;;;;4975436;28;20068;-67
2024/01/09 01:27:47;;;;;;;5.20;4.18;;;1.00;83.70;;;;;;4996285;28;20038;-67
2024/01/09 01:30:13;;;;;;;10.05;6.75;;;1.00;83.40;;;;;;4996755;28;20419;-67
2024/01/09 01:32:39;;;;;;;11.98;7.95;;;0.90;84.10;;;;;;4997557;28;20033;-68
2024/01/09 01:35:05;;;;;;;118.30;78.65;;;0.80;81.10;;;;;;4996080;28;20044;-68
2024/01/09 01:37:31;;;;;;;85.30;61.22;;;0.70;81.50;;;;;;5002555;28;20037;-68
2024/01/09 01:39:56;;;;;;;47.92;35.58;;;0.70;78.00;;;;;;5006104;28;20037;-69
2024/01/09 01:42:22;;;;;;;28.33;21.88;;;0.70;77.40;;;;;;4999887;28;20042;-68
2024/01/09 01:44:47;;;;;;;7.38;3.90;;;0.70;76.60;;;;;;4985584;28;20566;-68
2024/01/09 01:47:14;;;;;;;7.72;5.57;;;0.80;78.90;;;;;;4997376;28;20042;-66
2024/01/09 01:49:40;;;;;;;14.50;11.20;;;0.90;80.50;;;;;;5000211;28;20613;-66
2024/01/09 01:52:07;;;;;;;10.88;8.70;;;0.90;80.60;;;;;;5001884;28;20917;-68
2024/01/09 01:54:35;;;;;;;11.32;8.90;;;0.90;79.40;;;;;;4999714;28;20025;-68
2024/01/09 01:57:02;;;;;;;11.70;7.70;;;1.00;76.30;;;;;;5002510;28;20394;-68
2024/01/09 01:59:30;;;;;;;15.15;10.38;;;1.00;77.10;;;;;;4996068;28;20726;-68
2024/01/09 02:01:56;;;;;;;18.20;10.93;;;1.00;75.70;;;;;;4997873;28;20063;-68
2024/01/09 02:04:22;;;;;;;10.35;7.80;;;1.00;75.60;;;;;;4999338;28;20033;-69
2024/01/09 02:06:48;;;;;;;6.10;4.15;;;1.00;74.50;;;;;;4981566;28;20091;-62
2024/01/09 02:09:15;;;;;;;6.60;3.97;;;1.00;73.30;;;;;;4994604;28;20068;-62
2024/01/09 02:11:41;;;;;;;8.13;5.68;;;1.00;76.10;;;;;;4998666;28;20045;-62
2024/01/09 02:14:06;;;;;;;5.25;3.45;;;1.10;75.80;;;;;;4996631;28;20036;-62
2024/01/09 02:16:32;;;;;;;4.85;3.90;;;1.10;73.20;;;;;;4996590;28;20033;-62
2024/01/09 02:18:58;;;;;;;4.78;3.50;;;1.10;73.10;;;;;;4991510;28;20037;-62
2024/01/09 02:21:23;;;;;;;2.72;1.92;;;1.10;72.90;;;;;;5003291;28;20111;-63
2024/01/09 02:23:49;;;;;;;2.47;1.45;;;1.00;74.30;;;;;;4993612;28;20022;-62
2024/01/09 02:26:20;;;;;;;2.17;1.50;;;1.10;73.30;;;;;;4996957;28;20045;-63
2024/01/09 02:28:53;;;;;;;2.17;1.40;;;1.10;73.30;;;;;;4997459;28;20088;-62
2024/01/09 02:31:18;;;;;;;2.20;1.33;;;1.00;73.20;;;;;;4997644;28;20050;-62
2024/01/09 02:33:45;;;;;;;2.63;1.60;;;1.10;73.00;;;;;;4994827;28;20545;-62
2024/01/09 02:36:11;;;;;;;2.72;1.83;;;1.10;73.10;;;;;;5002343;28;20029;-62
2024/01/09 02:38:38;;;;;;;3.40;1.60;;;1.10;73.00;;;;;;4996310;28;20038;-62
2024/01/09 02:41:04;;;;;;;2.28;1.25;;;1.10;76.40;;;;;;5002354;28;20056;-60
2024/01/09 02:43:30;;;;;;;2.38;1.20;;;1.10;77.50;;;;;;4998268;28;20029;-60
2024/01/09 02:45:56;;;;;;;2.85;1.40;;;1.10;77.80;;;;;;4997997;28;20080;-60
2024/01/09 02:48:21;;;;;;;2.28;1.38;;;1.10;74.90;;;;;;4989577;28;20853;-60
2024/01/09 02:50:47;;;;;;;2.55;1.58;;;1.10;75.00;;;;;;4996053;28;20033;-61
2024/01/09 02:53:12;;;;;;;2.33;1.50;;;1.00;74.80;;;;;;4996934;28;20105;-61
2024/01/09 02:55:38;;;;;;;2.45;1.55;;;1.00;76.60;;;;;;4995768;28;20061;-60
2024/01/09 02:58:04;;;;;;;2.60;1.83;;;1.00;78.20;;;;;;4998084;28;20057;-60
2024/01/09 03:00:30;;;;;;;3.50;2.60;;;1.00;76.30;;;;;;4996376;28;20049;-60
2024/01/09 03:02:56;;;;;;;6.68;6.00;;;1.00;77.30;;;;;;4994580;28;20072;-61
2024/01/09 03:05:22;;;;;;;3.05;1.73;;;0.90;75.80;;;;;;4995227;28;20160;-61
2024/01/09 03:07:48;;;;;;;2.10;1.40;;;1.00;74.60;;;;;;4997302;28;20291;-61
2024/01/09 03:10:14;;;;;;;2.65;1.73;;;0.90;76.10;;;;;;4999450;28;20069;-61
2024/01/09 03:12:39;;;;;;;3.05;1.60;;;0.90;77.10;;;;;;5003903;28;20120;-61
2024/01/09 03:15:05;;;;;;;2.15;1.17;;;0.90;80.00;;;;;;4997450;28;20037;-61
2024/01/09 03:17:31;;;;;;;2.47;1.75;;;0.90;81.70;;;;;;5004299;28;20065;-60
2024/01/09 03:19:57;;;;;;;3.47;2.38;;;0.90;82.20;;;;;;4996031;28;20043;-61
2024/01/09 03:22:22;;;;;;;3.88;2.72;;;0.90;79.80;;;;;;5001207;28;20584;-61
2024/01/09 03:24:48;;;;;;;2.47;1.58;;;0.80;78.90;;;;;;4997739;28;20056;-61
2024/01/09 03:27:13;;;;;;;1.83;1.40;;;0.70;77.80;;;;;;4997393;28;20033;-61
2024/01/09 03:29:39;;;;;;;2.38;1.45;;;0.70;77.40;;;;;;4996250;28;20124;-61
2024/01/09 03:32:05;;;;;;;2.05;1.20;;;0.60;78.80;;;;;;5000429;28;20029;-61
2024/01/09 03:34:31;;;;;;;2.58;1.58;;;0.60;81.30;;;;;;5004206;28;20477;-61
2024/01/09 03:36:57;;;;;;;2.00;1.52;;;0.60;82.50;;;;;;5002820;28;20029;-61
2024/01/09 03:39:22;;;;;;;3.33;2.20;;;0.60;83.00;;;;;;4995335;28;20601;-62
2024/01/09 03:41:48;;;;;;;1.98;1.65;;;0.60;81.90;;;;;;5005019;28;20118;-60
2024/01/09 03:44:14;;;;;;;5.22;2.65;;;0.60;83.60;;;;;;5000008;28;20047;-60
2024/01/09 03:46:40;;;;;;;3.00;1.75;;;0.60;84.20;;;;;;4998007;28;20596;-61
2024/01/09 03:49:05;;;;;;;2.30;1.55;;;0.70;85.30;;;;;;5003692;28;20113;-61
2024/01/09 03:51:31;;;;;;;1.80;1.20;;;0.70;85.90;;;;;;5005693;28;20044;-60
2024/01/09 03:53:57;;;;;;;2.30;1.52;;;0.70;84.80;;;;;;4983627;28;25129;-62
2024/01/09 03:56:24;;;;;;;1.83;1.20;;;0.70;82.70;;;;;;5001118;28;20021;-69
2024/01/09 03:58:50;;;;;;;3.10;1.30;;;0.70;83.00;;;;;;4982304;28;20083;-68
2024/01/09 04:01:16;;;;;;;1.80;1.30;;;0.70;83.10;;;;;;4998488;28;20092;-68
2024/01/09 04:03:41;;;;;;;1.55;1.30;;;0.70;81.60;;;;;;5001674;28;20034;-69
2024/01/09 04:06:07;;;;;;;2.35;1.70;;;0.60;83.50;;;;;;4998341;28;20033;-69
2024/01/09 04:08:33;;;;;;;3.63;2.80;;;0.60;81.50;;;;;;5006416;28;20530;-69
2024/01/09 04:11:01;;;;;;;3.00;1.30;;;0.50;82.00;;;;;;4998247;28;20091;-69
2024/01/09 04:13:27;;;;;;;2.05;1.33;;;0.50;80.70;;;;;;4996621;28;20192;-69
2024/01/09 04:15:52;;;;;;;1.92;1.30;;;0.50;81.80;;;;;;5000055;28;23422;-62
2024/01/09 04:18:18;;;;;;;2.47;1.35;;;0.50;82.10;;;;;;5000651;28;20049;-62
2024/01/09 04:20:44;;;;;;;2.47;1.10;;;0.60;82.80;;;;;;4990163;28;20034;-62
2024/01/09 04:23:10;;;;;;;2.30;1.40;;;0.60;84.40;;;;;;5001011;28;20105;-62
2024/01/09 04:25:35;;;;;;;3.05;1.15;;;0.50;82.50;;;;;;4999074;28;20037;-62
2024/01/09 04:28:01;;;;;;;3.05;1.67;;;0.50;82.20;;;;;;5003936;28;20075;-60
2024/01/09 04:30:26;;;;;;;1.40;1.30;;;0.50;82.60;;;;;;4994905;28;20055;-62
2024/01/09 04:32:53;;;;;;;2.75;1.48;;;0.50;81.60;;;;;;5000025;28;20036;-69
2024/01/09 04:35:18;;;;;;;2.22;1.10;;;0.50;82.20;;;;;;4999057;28;20124;-69
2024/01/09 04:37:44;;;;;;;2.00;1.20;;;0.40;84.50;;;;;;5001874;28;20064;-69
2024/01/09 04:40:10;;;;;;;1.92;1.20;;;0.40;85.50;;;;;;5001144;28;20057;-69
2024/01/09 04:42:36;;;;;;;3.08;1.75;;;0.50;86.40;;;;;;4999887;28;20426;-69
2024/01/09 04:45:02;;;;;;;1.58;1.05;;;0.40;84.40;;;;;;4999970;28;20210;-69
2024/01/09 04:47:27;;;;;;;3.83;1.23;;;0.40;86.60;;;;;;4996040;28;20057;-68
2024/01/09 04:49:53;;;;;;;6.50;3.70;;;0.40;83.40;;;;;;4998534;28;20032;-69
2024/01/09 04:52:19;;;;;;;2.47;1.58;;;0.40;81.70;;;;;;4997481;28;20029;-69
2024/01/09 04:54:44;;;;;;;7.75;3.40;;;0.40;84.20;;;;;;4999342;28;20061;-69
2024/01/09 04:57:10;;;;;;;2.28;1.35;;;0.30;84.80;;;;;;5001791;28;20029;-69
2024/01/09 04:59:36;;;;;;;3.88;2.20;;;0.30;85.00;;;;;;5004860;28;20044;-69
2024/01/09 05:02:02;;;;;;;4.93;3.47;;;0.40;84.80;;;;;;4996423;28;20029;-69
2024/01/09 05:04:29;;;;;;;2.85;1.80;;;0.40;83.10;;;;;;4999010;28;20044;-69
2024/01/09 05:06:54;;;;;;;2.22;1.30;;;0.30;83.10;;;;;;5000347;28;20040;-68
2024/01/09 05:09:20;;;;;;;3.40;1.50;;;0.30;84.60;;;;;;4994163;28;20037;-69
2024/01/09 05:11:46;;;;;;;2.83;1.42;;;0.30;83.80;;;;;;4994890;28;20037;-69
2024/01/09 05:14:11;;;;;;;2.88;1.70;;;0.30;81.90;;;;;;4994851;28;20052;-69
2024/01/09 05:16:37;;;;;;;1.67;1.20;;;0.30;81.50;;;;;;4999817;28;20727;-68
2024/01/09 05:19:02;;;;;;;1.90;1.23;;;0.30;81.20;;;;;;5002257;28;20040;-68
2024/01/09 05:21:30;;;;;;;2.08;1.33;;;0.30;82.50;;;;;;5001245;28;20031;-68
2024/01/09 05:23:56;;;;;;;2.25;1.15;;;0.30;79.60;;;;;;4999273;28;20033;-68
2024/01/09 05:26:21;;;;;;;3.75;1.98;;;0.30;78.70;;;;;;4995948;28;20045;-69
2024/01/09 05:28:47;;;;;;;2.92;2.00;;;0.30;77.80;;;;;;4980172;28;20133;-69
2024/01/09 05:31:13;;;;;;;3.38;2.00;;;0.30;77.70;;;;;;4996998;28;20414;-70
2024/01/09 05:33:39;;;;;;;3.15;1.60;;;0.30;75.40;;;;;;4979015;28;20041;-70
2024/01/09 05:36:06;;;;;;;2.75;1.50;;;0.30;75.20;;;;;;5001780;28;20026;-68
2024/01/09 05:38:32;;;;;;;2.85;1.60;;;0.40;76.60;;;;;;5002177;28;20033;-69
2024/01/09 05:40:57;;;;;;;2.83;1.75;;;0.40;75.50;;;;;;4994512;28;20523;-69
2024/01/09 05:43:23;;;;;;;2.50;1.50;;;0.40;75.50;;;;;;4997921;28;20116;-69
2024/01/09 05:45:48;;;;;;;5.53;2.72;;;0.40;75.50;;;;;;4995871;28;20057;-69
2024/01/09 05:48:14;;;;;;;2.05;1.20;;;0.50;76.00;;;;;;4997025;28;20025;-69
2024/01/09 05:50:39;;;;;;;2.15;1.40;;;0.50;75.00;;;;;;4998032;28;20229;-68
2024/01/09 05:53:05;;;;;;;2.85;1.15;;;0.50;75.40;;;;;;5002733;28;20026;-69
2024/01/09 05:55:31;;;;;;;1.48;1.00;;;0.40;73.30;;;;;;5002083;28;20199;-69
2024/01/09 05:57:56;;;;;;;1.92;1.25;;;0.50;73.10;;;;;;5000606;28;20099;-69
2024/01/09 06:00:22;;;;;;;3.08;1.40;;;0.50;74.60;;;;;;5000032;28;20033;-69
2024/01/09 06:02:48;;;;;;;2.45;1.33;;;0.50;73.50;;;;;;4999961;28;20056;-69
2024/01/09 06:05:13;;;;;;;3.17;1.80;;;0.50;73.70;;;;;;4994345;28;20046;-62
2024/01/09 06:07:39;;;;;;;3.58;2.00;;;0.50;73.70;;;;;;4995121;28;20105;-62
2024/01/09 06:10:05;;;;;;;2.92;1.83;;;0.50;74.30;;;;;;4996572;28;20044;-62
2024/01/09 06:12:31;;;;;;;1.80;1.23;;;0.50;73.60;;;;;;4993060;28;20037;-62
2024/01/09 06:14:57;;;;;;;108.65;54.65;;;0.60;73.80;;;;;;4996024;28;20048;-61
2024/01/09 06:17:23;;;;;;;186.60;96.40;;;0.60;74.10;;;;;;4998638;28;20072;-61
2024/01/09 06:19:49;;;;;;;151.25;93.88;;;0.60;74.50;;;;;;4995725;28;20033;-61
2024/01/09 06:22:14;;;;;;;46.58;41.67;;;0.60;74.90;;;;;;4990719;28;20041;-66
2024/01/09 06:24:40;;;;;;;8.95;8.15;;;0.60;74.20;;;;;;4988334;28;20714;-62
2024/01/09 06:27:05;;;;;;;4.80;4.38;;;0.70;73.50;;;;;;4991753;28;20065;-62
2024/01/09 06:29:31;;;;;;;3.63;3.33;;;0.70;73.50;;;;;;4998033;28;20117;-60
2024/01/09 06:31:57;;;;;;;4.22;2.53;;;0.70;71.20;;;;;;4996486;28;20048;-62
2024/01/09 06:34:22;;;;;;;4.25;2.50;;;0.60;71.70;;;;;;4991842;28;20441;-63
2024/01/09 06:36:49;;;;;;;3.83;3.30;;;0.60;72.90;;;;;;4991804;28;20046;-62
2024/01/09 06:39:15;;;;;;;6.57;4.78;;;0.70;73.10;;;;;;4986912;28;20478;-62
2024/01/09 06:41:43;;;;;;;60.47;31.65;;;0.70;72.60;;;;;;4996802;28;20144;-62
2024/01/09 06:44:09;;;;;;;56.55;31.30;;;0.80;72.40;;;;;;4969264;28;20736;-61
2024/01/09 06:46:36;;;;;;;35.95;19.42;;;0.70;73.80;;;;;;4992336;28;20120;-62
2024/01/09 06:49:01;;;;;;;44.22;24.17;;;0.80;72.40;;;;;;4999914;28;20118;-60
2024/01/09 06:51:28;;;;;;;16.05;9.30;;;0.80;73.40;;;;;;4994049;28;23736;-61
2024/01/09 06:53:54;;;;;;;10.38;6.55;;;0.80;73.20;;;;;;4996575;28;21693;-61
2024/01/09 06:56:20;;;;;;;11.32;6.82;;;0.80;73.50;;;;;;4997497;28;20132;-61
2024/01/09 06:58:45;;;;;;;14.30;8.23;;;0.90;73.20;;;;;;4997454;28;20090;-62
2024/01/09 07:01:11;;;;;;;29.67;17.80;;;0.90;71.70;;;;;;4999006;28;20113;-62
2024/01/09 07:03:37;;;;;;;11.50;7.55;;;0.90;71.10;;;;;;4995428;28;20601;-62
2024/01/09 07:06:03;;;;;;;23.67;14.93;;;0.90;71.40;;;;;;4993201;28;20044;-61
2024/01/09 07:08:29;;;;;;;15.05;10.07;;;0.90;70.30;;;;;;4995115;28;20030;-62
2024/01/09 07:10:55;;;;;;;22.45;13.73;;;1.00;69.90;;;;;;4974839;28;20046;-62
2024/01/09 07:13:21;;;;;;;10.23;6.07;;;1.00;70.70;;;;;;4999093;28;20246;-60
2024/01/09 07:15:46;;;;;;;7.82;3.90;;;1.00;72.10;;;;;;4997197;28;20037;-60
2024/01/09 07:18:12;;;;;;;4.53;2.75;;;1.00;72.40;;;;;;5001915;28;20022;-60
2024/01/09 07:20:38;;;;;;;11.95;6.85;;;1.00;72.50;;;;;;5000847;28;20045;-60
2024/01/09 07:23:03;;;;;;;5.93;3.65;;;1.00;73.30;;;;;;5000660;28;20033;-60
2024/01/09 07:25:29;;;;;;;8.27;4.78;;;1.00;73.90;;;;;;4996301;28;20045;-61
2024/01/09 07:27:55;;;;;;;12.82;7.57;;;0.90;73.10;;;;;;4997265;28;20030;-61
2024/01/09 07:30:20;;;;;;;6.93;4.22;;;0.90;72.10;;;;;;4995790;28;20843;-61
2024/01/09 07:32:46;;;;;;;5.45;3.20;;;0.90;73.20;;;;;;5002120;28;20037;-60
2024/01/09 07:35:11;;;;;;;8.95;6.22;;;0.90;73.20;;;;;;4992680;28;20017;-61
2024/01/09 07:37:37;;;;;;;4.70;3.17;;;0.90;72.90;;;;;;4997735;28;20562;-61
2024/01/09 07:40:04;;;;;;;3.88;2.75;;;0.90;71.60;;;;;;4994911;28;20040;-63
2024/01/09 07:42:30;;;;;;;7.43;3.50;;;0.90;71.20;;;;;;5000412;28;20152;-60
2024/01/09 07:44:56;;;;;;;8.63;4.85;;;1.00;71.70;;;;;;5000699;28;20033;-61
2024/01/09 07:47:22;;;;;;;8.38;4.90;;;1.00;71.40;;;;;;4992042;28;20434;-61
2024/01/09 07:49:47;;;;;;;10.50;6.45;;;1.00;71.30;;;;;;4992419;28;20030;-60
2024/01/09 07:52:13;;;;;;;7.28;4.25;;;1.10;71.60;;;;;;4984362;28;20040;-61
2024/01/09 07:54:40;;;;;;;11.10;6.82;;;1.10;71.60;;;;;;4969857;28;20064;-66
2024/01/09 07:57:07;;;;;;;10.13;5.10;;;1.10;70.00;;;;;;4993500;28;20109;-65
2024/01/09 07:59:32;;;;;;;7.55;4.03;;;1.10;69.70;;;;;;5000518;28;20059;-67
2024/01/09 08:02:00;;;;;;;6.03;3.53;;;1.10;68.00;;;;;;4997386;28;20034;-67
2024/01/09 08:04:26;;;;;;;13.15;5.15;;;1.10;69.40;;;;;;4988426;28;20632;-66
2024/01/09 08:06:52;;;;;;;5.18;2.85;;;1.10;70.00;;;;;;4989722;28;20133;-66
2024/01/09 08:09:18;;;;;;;7.07;4.38;;;1.20;69.50;;;;;;4995444;28;20049;-66
2024/01/09 08:11:47;;;;;;;7.20;3.67;;;1.20;69.20;;;;;;4988346;28;20036;-66
2024/01/09 08:14:13;;;;;;;5.38;4.07;;;1.20;67.70;;;;;;4991640;28;20057;-66
2024/01/09 08:16:40;;;;;;;7.53;4.90;;;1.20;69.20;;;;;;4987520;28;20096;-65
2024/01/09 08:19:06;;;;;;;12.10;3.08;;;1.20;66.30;;;;;;4997318;28;20060;-66
2024/01/09 08:21:32;;;;;;;10.43;4.78;;;1.30;67.90;;;;;;5005336;28;20041;-66
2024/01/09 08:23:57;;;;;;;7.15;4.10;;;1.40;65.70;;;;;;4994832;28;20033;-65
2024/01/09 08:26:23;;;;;;;6.35;3.50;;;1.30;68.10;;;;;;4989124;28;20769;-65
2024/01/09 08:28:49;;;;;;;8.45;5.20;;;1.40;68.10;;;;;;4984363;28;20049;-66
2024/01/09 08:31:16;;;;;;;8.57;4.05;;;1.50;67.50;;;;;;4991529;28;20037;-61
2024/01/09 08:33:42;;;;;;;15.43;8.07;;;1.60;67.00;;;;;;4994599;28;20506;-61
2024/01/09 08:36:08;;;;;;;11.70;6.40;;;1.60;63.20;;;;;;4995209;28;20041;-61
2024/01/09 08:38:34;;;;;;;9.20;4.75;;;1.60;65.90;;;;;;4998588;28;20039;-60
2024/01/09 08:41:01;;;;;;;11.80;5.72;;;1.70;64.80;;;;;;4991688;28;20046;-60
2024/01/09 08:43:27;;;;;;;15.05;6.70;;;1.90;65.20;;;;;;4992922;28;20628;-61
2024/01/09 08:45:52;;;;;;;3.97;2.30;;;2.00;67.40;;;;;;4988393;28;20120;-60
2024/01/09 08:48:18;;;;;;;23.42;12.50;;;2.20;65.70;;;;;;4991806;28;20106;-61
2024/01/09 08:50:44;;;;;;;7.05;3.47;;;2.30;64.40;;;;;;4985491;28;20106;-61
2024/01/09 08:53:10;;;;;;;6.65;2.53;;;2.50;64.50;;;;;;4986420;28;20030;-61
2024/01/09 08:55:36;;;;;;;11.98;5.20;;;2.60;62.50;;;;;;4989922;28;20103;-61
2024/01/09 08:58:01;;;;;;;4.07;2.03;;;2.70;63.80;;;;;;4992210;28;20022;-61
2024/01/09 09:00:27;;;;;;;9.68;5.80;;;2.70;62.00;;;;;;4986783;28;20037;-61
2024/01/09 09:02:52;;;;;;;5.10;3.05;;;2.80;60.50;;;;;;4986392;28;20473;-61
2024/01/09 09:05:18;;;;;;;7.50;4.07;;;2.80;59.20;;;;;;5000091;28;20481;-60
2024/01/09 09:07:44;;;;;;;11.52;5.72;;;2.80;61.00;;;;;;4996589;28;20030;-61
2024/01/09 09:10:09;;;;;;;12.25;5.93;;;2.90;59.90;;;;;;5012669;28;20025;-61
2024/01/09 09:12:35;;;;;;;20.27;9.18;;;2.90;59.60;;;;;;5011543;28;20214;-61
2024/01/09 09:15:04;;;;;;;7.97;3.08;;;2.90;58.40;;;;;;5013615;28;20136;-62
2024/01/09 09:17:30;;;;;;;33.60;17.75;;;2.80;57.90;;;;;;5011348;28;20106;-62
2024/01/09 09:19:57;;;;;;;6.65;3.97;;;2.90;59.00;;;;;;5010712;28;20028;-62
2024/01/09 09:22:25;;;;;;;17.80;9.25;;;2.80;58.60;;;;;;5012191;28;20022;-62
2024/01/09 09:24:54;;;;;;;18.08;8.07;;;2.80;58.50;;;;;;5005465;28;20267;-62
2024/01/09 09:27:20;;;;;;;37.70;19.83;;;2.80;61.20;;;;;;5011721;28;20108;-65
2024/01/09 09:29:46;;;;;;;24.27;12.90;;;2.80;59.90;;;;;;5015142;28;20124;-65
2024/01/09 09:32:11;;;;;;;24.83;11.68;;;2.70;60.10;;;;;;5017546;28;20036;-65
2024/01/09 09:34:41;;;;;;;65.75;30.15;;;2.70;60.70;;;;;;5014333;28;20022;-65
2024/01/09 09:37:07;;;;;;;9.32;6.13;;;2.70;61.50;;;;;;5008958;28;20038;-65
2024/01/09 09:39:33;;;;;;;35.53;18.27;;;2.70;61.70;;;;;;5007351;28;20310;-66
2024/01/09 09:41:59;;;;;;;45.53;23.95;;;2.70;60.50;;;;;;5008887;28;20085;-66
2024/01/09 09:44:26;;;;;;;12.70;6.75;;;2.70;60.90;;;;;;5012309;28;20137;-65
2024/01/09 09:46:52;;;;;;;7.43;4.47;;;2.70;60.10;;;;;;5011026;28;20033;-66
2024/01/09 09:49:21;;;;;;;20.75;10.95;;;2.70;60.00;;;;;;5011856;28;20040;-66
2024/01/09 09:51:47;;;;;;;31.25;17.23;;;2.70;59.80;;;;;;5010664;28;20606;-66
2024/01/09 09:54:14;;;;;;;33.90;18.20;;;2.70;60.60;;;;;;5010703;28;20035;-66
2024/01/09 09:56:41;;;;;;;17.58;10.27;;;2.70;60.00;;;;;;5014575;28;20033;-66
2024/01/09 09:59:09;;;;;;;5.82;3.83;;;2.80;60.90;;;;;;5010610;28;20030;-66
2024/01/09 10:01:35;;;;;;;27.20;13.88;;;2.80;61.50;;;;;;5004938;28;20149;-66
2024/01/09 10:04:24;;;;;;;88.07;42.88;;;2.80;59.30;;;;;;5014231;28;20024;-66
2024/01/09 10:06:54;;;;;;;70.22;36.15;;;2.70;61.50;;;;;;5011295;28;20041;-66
2024/01/09 10:09:20;;;;;;;14.60;9.27;;;2.70;59.80;;;;;;5016396;28;20030;-66
2024/01/09 10:11:50;;;;;;;95.75;54.47;;;2.60;62.50;;;;;;4996456;28;20064;-66
2024/01/09 10:14:16;;;;;;;7.10;5.18;;;2.60;59.80;;;;;;5014254;28;20038;-66
2024/01/09 10:17:12;;;;;;;64.50;34.47;;;2.60;60.50;;;;;;5011863;28;20047;-65
2024/01/09 10:19:38;;;;;;;16.58;10.65;;;2.60;62.40;;;;;;5010137;28;20049;-66
2024/01/09 10:22:04;;;;;;;6.10;4.70;;;2.60;60.80;;;;;;5014013;28;20030;-65
2024/01/09 10:24:30;;;;;;;3.05;2.17;;;2.60;61.20;;;;;;5009493;28;20152;-65
2024/01/09 10:26:55;;;;;;;4.20;1.77;;;2.60;62.40;;;;;;5010340;28;20111;-65
2024/01/09 10:29:21;;;;;;;9.85;5.20;;;2.70;61.90;;;;;;5018291;28;21042;-65
2024/01/09 10:31:47;;;;;;;10.82;8.95;;;2.70;60.90;;;;;;4998563;28;20297;-65
2024/01/09 10:34:12;;;;;;;2.92;2.03;;;2.60;59.50;;;;;;5006994;28;20153;-66
2024/01/09 10:36:38;;;;;;;6.65;3.17;;;2.60;59.40;;;;;;5005404;28;20065;-66
2024/01/09 10:39:09;;;;;;;3.25;1.90;;;2.70;59.30;;;;;;5008237;28;20087;-66
2024/01/09 10:41:34;;;;;;;5.53;2.33;;;2.60;58.60;;;;;;5003204;28;20072;-66
2024/01/09 10:44:01;;;;;;;5.97;3.63;;;2.60;58.40;;;;;;5006316;28;20160;-65
2024/01/09 10:46:27;;;;;;;3.67;2.47;;;2.60;58.10;;;;;;5002415;28;20041;-66
2024/01/09 10:48:54;;;;;;;3.70;2.53;;;2.60;59.70;;;;;;5012068;28;20036;-66
2024/01/09 10:51:22;;;;;;;5.75;3.20;;;2.60;60.10;;;;;;5016028;28;20030;-66
2024/01/09 10:53:50;;;;;;;5.38;3.72;;;2.60;60.00;;;;;;5009704;28;20494;-66
2024/01/09 10:56:17;;;;;;;17.48;2.92;;;2.70;60.00;;;;;;5011315;28;20065;-67
2024/01/09 10:58:49;;;;;;;5.00;3.38;;;2.70;60.70;;;;;;5011850;28;20051;-64
2024/01/09 11:01:15;;;;;;;4.63;2.58;;;2.70;59.60;;;;;;5001597;28;20056;-60
2024/01/09 11:03:42;;;;;;;24.92;17.00;;;2.80;61.90;;;;;;5003938;28;20043;-60
2024/01/09 11:06:09;;;;;;;17.15;11.45;;;2.80;59.60;;;;;;5006189;28;20049;-60
2024/01/09 11:08:35;;;;;;;6.88;4.45;;;2.80;60.10;;;;;;5009806;28;21707;-60
2024/01/09 11:11:04;;;;;;;6.03;4.35;;;2.90;60.10;;;;;;5008496;28;20044;-60
2024/01/09 11:13:33;;;;;;;14.52;11.88;;;2.90;59.30;;;;;;5011577;28;20604;-61
2024/01/09 11:16:00;;;;;;;5.63;4.15;;;3.00;59.00;;;;;;5015344;28;20029;-65
2024/01/09 11:18:27;;;;;;;3.97;2.38;;;3.00;58.10;;;;;;5016382;28;20125;-65
2024/01/09 11:21:01;;;;;;;4.93;3.45;;;3.00;58.10;;;;;;5014382;28;20045;-65
2024/01/09 11:24:03;;;;;;;3.28;2.60;;;3.10;58.30;;;;;;5013756;28;20090;-65
2024/01/09 11:26:34;;;;;;;2.85;1.48;;;3.10;56.60;;;;;;5010472;28;20130;-65
2024/01/09 11:28:59;;;;;;;2.47;1.45;;;3.10;57.80;;;;;;5009679;28;20064;-65
2024/01/09 11:31:27;;;;;;;2.78;1.80;;;3.20;58.10;;;;;;5012580;28;20475;-66
2024/01/09 11:33:55;;;;;;;2.25;1.58;;;3.30;59.10;;;;;;5011255;28;20032;-66
2024/01/09 11:36:27;;;;;;;2.35;1.40;;;3.30;57.40;;;;;;5013124;28;20040;-61
2024/01/09 11:38:54;;;;;;;3.85;1.30;;;3.30;58.00;;;;;;5014552;28;20113;-61
2024/01/09 11:41:22;;;;;;;4.07;1.42;;;3.30;57.50;;;;;;5012257;28;20654;-61
2024/01/09 11:44:02;;;;;;;2.03;1.20;;;3.30;56.70;;;;;;5019019;28;20052;-61
2024/01/09 11:46:29;;;;;;;4.38;3.17;;;3.40;58.20;;;;;;5013136;28;20150;-61
2024/01/09 11:48:55;;;;;;;2.75;2.20;;;3.50;58.40;;;;;;5015190;28;20021;-61
2024/01/09 11:51:22;;;;;;;2.58;1.90;;;3.50;57.30;;;;;;5018823;28;20033;-61
2024/01/09 11:53:48;;;;;;;2.13;1.70;;;3.60;58.10;;;;;;5016704;28;20474;-61
2024/01/09 11:56:14;;;;;;;3.22;1.50;;;3.60;57.50;;;;;;5016245;28;20037;-66
2024/01/09 11:58:41;;;;;;;2.28;1.45;;;3.60;56.50;;;;;;5019325;28;20437;-66
2024/01/09 12:01:07;;;;;;;2.60;1.95;;;3.60;56.80;;;;;;5013963;28;20031;-65
2024/01/09 12:03:35;;;;;;;2.83;1.35;;;3.60;57.80;;;;;;5013108;28;20022;-65
2024/01/09 12:06:04;;;;;;;2.47;1.77;;;3.60;57.20;;;;;;5013843;28;20415;-66
2024/01/09 12:08:31;;;;;;;2.97;1.83;;;3.60;56.90;;;;;;5014990;28;20579;-66
2024/01/09 12:10:56;;;;;;;4.60;3.83;;;3.60;58.10;;;;;;5014215;28;20182;-65
2024/01/09 12:13:22;;;;;;;2.40;1.48;;;3.60;56.50;;;;;;5015790;28;20628;-66
2024/01/09 12:15:47;;;;;;;2.72;1.60;;;3.70;56.70;;;;;;5014134;28;20440;-66
2024/01/09 12:18:13;;;;;;;3.90;3.00;;;3.70;56.70;;;;;;5011532;28;20084;-65
2024/01/09 12:20:39;;;;;;;4.35;2.75;;;3.80;58.80;;;;;;5016781;28;20316;-66
2024/01/09 12:23:05;;;;;;;65.75;58.40;;;3.80;57.90;;;;;;5011201;28;20056;-66
2024/01/09 12:25:31;;;;;;;13.82;11.77;;;3.90;57.20;;;;;;5014282;28;20033;-66
2024/01/09 12:27:59;;;;;;;2.15;1.83;;;3.90;56.60;;;;;;5013202;28;20040;-66
2024/01/09 12:30:25;;;;;;;2.42;1.50;;;3.90;59.60;;;;;;5008090;28;20155;-65
2024/01/09 12:32:53;;;;;;;3.75;1.55;;;4.00;58.90;;;;;;5004239;28;20876;-65
2024/01/09 12:35:19;;;;;;;5.82;1.38;;;4.00;57.50;;;;;;5007693;28;20136;-65
2024/01/09 12:37:48;;;;;;;2.53;1.52;;;4.10;57.80;;;;;;5014381;28;20026;-68
2024/01/09 12:40:17;;;;;;;39.50;4.88;;;4.10;57.10;;;;;;5004105;28;20042;-66
2024/01/09 12:42:42;;;;;;;5.95;1.65;;;4.10;57.40;;;;;;5011485;28;20058;-66
2024/01/09 12:45:11;;;;;;;12.93;1.45;;;4.10;57.90;;;;;;5011051;28;21046;-66
2024/01/09 12:47:37;;;;;;;2.78;1.45;;;4.10;57.90;;;;;;5010445;28;20037;-67